M I D A S
Marine Information and Data Acquisition System
Tripno 998 of the Zeeleeuw from 2005-07-18 09:06:22 to 2005-07-18 11:51:56
Back to CruiseResearch ActivitiesStationsMapUnderway DataData graphs

EquipmentUnitsComments
TimeDGPSUTC
LatitudeDGPSDM.mWGS84
LongitudeDGPSDM.mWGS84
SpeedMeteo Stationm/sRelative wind speed
DirectionMeteo StationdegRelative wind direction
TemperatureMeteo Stationdeg CelciusAir temperature
PressureMeteo StationPaAtmospheric pressure
HumidityMeteo Station%Relative humidity
Missing or incorrect values are displayed as -999
Metereological data collected by the RV Zeeleeuw from 2005-07-18 08:07:49 to 2005-07-18 12:01:33
Time Latitude Longitude Speed Direction Temperature Pressure Humidity
2005-07-18 08:08 51°13.707 2°55.869 3.2 84 19.3 100840 74
2005-07-18 08:09 51°13.707 2°55.869 3.3 56 19.3 100840 74
2005-07-18 08:10 51°13.707 2°55.868 2.8 55 19.3 100840 74
2005-07-18 08:11 51°13.707 2°55.868 2.4 54 19.3 100840 74
2005-07-18 08:12 51°13.706 2°55.869 2.3 65 19.3 100840 74
2005-07-18 08:13 51°13.706 2°55.869 2.4 47 19.4 100840 75
2005-07-18 08:14 51°13.706 2°55.869 1.9 84 19.4 100840 76
2005-07-18 08:15 51°13.707 2°55.869 2.6 86 19.4 100840 75
2005-07-18 08:16 51°13.707 2°55.869 2.3 83 19.4 100850 75
2005-07-18 08:17 51°13.706 2°55.869 2.2 47 19.4 100850 76
2005-07-18 08:18 51°13.707 2°55.869 2.5 83 19.4 100850 76
2005-07-18 08:19 51°13.707 2°55.868 2.5 79 19.4 100850 75
2005-07-18 08:20 51°13.707 2°55.868 3.4 89 19.4 100860 76
2005-07-18 08:21 51°13.708 2°55.868 2.6 85 19.3 100860 76
2005-07-18 08:22 51°13.707 2°55.868 3.1 99 19.3 100860 76
2005-07-18 08:23 51°13.707 2°55.867 2.6 54 19.3 100860 76
2005-07-18 08:24 51°13.706 2°55.87 2.5 66 19.2 100860 76
2005-07-18 08:25 51°13.707 2°55.871 2.5 87 19.2 100860 76
2005-07-18 08:26 51°13.706 2°55.868 4.9 65 19.2 100870 76
2005-07-18 08:27 51°13.706 2°55.868 2.7 77 19.1 100870 76
2005-07-18 08:28 51°13.706 2°55.869 2.2 78 19.1 100870 76
2005-07-18 08:29 51°13.706 2°55.868 3.2 86 19.1 100880 77
2005-07-18 08:30 51°13.706 2°55.867 2.5 90 19.2 100880 77
2005-07-18 08:31 51°13.706 2°55.869 3.1 85 19.1 100880 76
2005-07-18 08:32 51°13.706 2°55.868 3.4 120 19.1 100880 76
2005-07-18 08:33 51°13.707 2°55.868 2.7 63 19.1 100880 76
2005-07-18 08:34 51°13.706 2°55.868 2.4 85 19.1 100880 77
2005-07-18 08:35 51°13.705 2°55.868 3.9 85 19.1 100880 76
2005-07-18 08:36 51°13.705 2°55.868 4.1 80 19.1 100880 75
2005-07-18 08:37 51°13.706 2°55.869 3.5 87 19.2 100880 75
2005-07-18 08:38 51°13.706 2°55.869 3.5 87 19.2 100880 75
2005-07-18 08:39 51°13.707 2°55.87 2.3 50 19.2 100870 75
2005-07-18 08:40 51°13.706 2°55.87 2.6 72 19.3 100870 75
2005-07-18 08:41 51°13.706 2°55.871 2.2 62 19.3 100870 76
2005-07-18 08:42 51°13.706 2°55.87 3.1 74 19.3 100870 75
2005-07-18 08:43 51°13.707 2°55.869 3.4 72 19.2 100870 75
2005-07-18 08:44 51°13.707 2°55.869 2.4 95 19.2 100870 75
2005-07-18 08:45 51°13.706 2°55.869 3.7 70 19.3 100870 76
2005-07-18 08:46 51°13.707 2°55.869 3.3 72 19.3 100870 75
2005-07-18 08:47 51°13.71 2°55.87 2.5 87 19.3 100870 76
2005-07-18 08:48 51°13.707 2°55.869 4.5 77 19.4 100860 76
2005-07-18 08:49 51°13.707 2°55.869 2.9 41 19.4 100860 75
2005-07-18 08:50 51°13.709 2°55.87 4.1 50 19.4 100860 76
2005-07-18 08:51 51°13.706 2°55.869 3.1 64 -999 -999 -999
2005-07-18 08:52 51°13.706 2°55.869 2.8 53 19.5 100860 75
2005-07-18 08:53 51°13.707 2°55.871 3.2 43 19.5 100850 76
2005-07-18 08:54 51°13.707 2°55.87 3.9 62 19.5 100860 75
2005-07-18 08:55 51°13.708 2°55.87 4.1 66 19.5 100850 75
2005-07-18 08:56 51°13.708 2°55.869 2.3 103 19.5 100850 75
2005-07-18 08:57 51°13.707 2°55.869 2.8 69 19.5 100850 75
2005-07-18 08:58 51°13.708 2°55.869 3.7 64 19.6 100850 75
2005-07-18 08:59 51°13.71 2°55.869 3.9 80 19.6 100850 76
2005-07-18 09:00 51°13.709 2°55.869 2.7 103 19.5 100850 75
2005-07-18 09:01 51°13.708 2°55.869 2.5 88 19.6 100850 76
2005-07-18 09:02 51°13.708 2°55.869 3.4 68 19.6 100850 76
2005-07-18 09:03 51°13.707 2°55.869 2.7 82 19.7 100850 76
2005-07-18 09:04 51°13.706 2°55.868 1.7 59 19.7 100850 75
2005-07-18 09:05 51°13.706 2°55.869 3 98 19.7 100840 75
2005-07-18 09:06 51°13.706 2°55.867 3.2 61 19.7 100840 75
2005-07-18 09:07 51°13.686 2°55.905 3.2 20 19.7 100840 76
2005-07-18 09:08 51°13.644 2°55.97 4.6 33 19.7 100830 75
2005-07-18 09:09 51°13.597 2°56.025 4.7 41 19.6 100830 75
2005-07-18 09:10 51°13.563 2°56.091 3.2 68 19.6 100830 75
2005-07-18 09:11 51°13.548 2°56.168 1.8 74 19.6 100840 75
2005-07-18 09:12 51°13.552 2°56.184 2.1 131 19.6 100840 75
2005-07-18 09:13 51°13.551 2°56.184 2.7 220 19.7 100850 75
2005-07-18 09:14 51°13.548 2°56.182 1.7 255 19.8 100850 74
2005-07-18 09:15 51°13.591 2°56.056 4.7 316 19.8 100840 74
2005-07-18 09:16 51°13.668 2°55.869 5.8 328 19.8 100840 74
2005-07-18 09:17 51°13.755 2°55.703 4.2 280 19.7 100830 75
2005-07-18 09:18 51°13.867 2°55.608 1.4 332 19.7 100830 75
2005-07-18 09:19 51°14.008 2°55.528 3.9 292 19.7 100840 75
2005-07-18 09:20 51°14.147 2°55.427 3.2 294 19.7 100830 75
2005-07-18 09:21 51°14.289 2°55.253 6 312 19.7 100830 75
2005-07-18 09:22 51°14.402 2°55.032 6.1 317 19.7 100830 74
2005-07-18 09:23 51°14.591 2°54.942 4.1 312 19.7 100830 74
2005-07-18 09:24 51°14.819 2°54.883 3.8 227 19.6 100830 75
2005-07-18 09:25 51°15.051 2°54.816 4.7 321 19.6 100830 75
2005-07-18 09:26 51°15.288 2°54.738 5 312 19.6 100830 75
2005-07-18 09:27 51°15.519 2°54.659 5.3 43 19.6 100830 76
2005-07-18 09:28 51°15.747 2°54.571 5.9 42 19.6 100830 75
2005-07-18 09:29 51°15.976 2°54.486 5.1 314 19.6 100830 75
2005-07-18 09:30 51°16.128 2°54.433 4.8 284 19.6 100830 76
2005-07-18 09:31 51°16.224 2°54.383 5.9 298 19.6 100830 77
2005-07-18 09:32 51°16.272 2°54.344 5.9 289 19.6 100830 75
2005-07-18 09:33 51°16.297 2°54.354 6.3 306 19.6 100830 76
2005-07-18 09:34 51°16.318 2°54.356 6.8 313 19.6 100830 76
2005-07-18 09:35 51°16.338 2°54.366 6 308 19.6 100830 75
2005-07-18 09:36 51°16.357 2°54.381 6.5 303 19.6 100820 75
2005-07-18 09:37 51°16.377 2°54.4 5.8 296 19.5 100830 77
2005-07-18 09:38 51°16.397 2°54.421 5.8 282 19.5 100830 78
2005-07-18 09:39 51°16.418 2°54.444 5.6 293 19.5 100820 79
2005-07-18 09:40 51°16.438 2°54.469 5.6 289 19.5 100820 79
2005-07-18 09:41 51°16.457 2°54.494 5.6 277 19.5 100820 79
2005-07-18 09:42 51°16.477 2°54.521 5.6 286 19.5 100810 78
2005-07-18 09:43 51°16.496 2°54.547 5.7 282 19.4 100820 79
2005-07-18 09:44 51°16.516 2°54.574 4.8 301 19.4 100820 80
2005-07-18 09:45 51°16.536 2°54.602 5.6 294 19.4 100820 79
2005-07-18 09:46 51°16.555 2°54.626 5.7 308 19.4 100820 79
2005-07-18 09:47 51°16.533 2°54.6 7.5 8 19.4 100820 79
2005-07-18 09:48 51°16.459 2°54.559 7.9 8 19.4 100810 78
2005-07-18 09:49 51°16.382 2°54.483 7.4 355 19.3 100810 78
2005-07-18 09:50 51°16.314 2°54.395 6.8 1 19.3 100810 78
2005-07-18 09:51 51°16.267 2°54.342 7.4 359 19.3 100820 78
2005-07-18 09:52 51°16.239 2°54.298 6 358 19.3 100820 78
2005-07-18 09:53 51°16.222 2°54.278 6.1 5 19.3 100820 78
2005-07-18 09:54 51°16.21 2°54.276 5.4 12 19.3 100810 77
2005-07-18 09:55 51°16.203 2°54.289 5.1 20 19.3 100810 77
2005-07-18 09:56 51°16.2 2°54.31 4.5 20 19.2 100820 77
2005-07-18 09:57 51°16.198 2°54.328 5.1 6 19.2 100820 77
2005-07-18 09:58 51°16.201 2°54.341 4.9 348 19.3 100820 77
2005-07-18 09:59 51°16.21 2°54.351 4.9 327 19.3 100820 77
2005-07-18 10:00 51°16.225 2°54.365 5 305 19.3 100820 77
2005-07-18 10:01 51°16.241 2°54.377 4.8 318 19.4 100820 78
2005-07-18 10:02 51°16.256 2°54.386 4.8 317 19.3 100820 78
2005-07-18 10:03 51°16.271 2°54.393 4.9 315 19.3 100830 77
2005-07-18 10:04 51°16.287 2°54.404 4.7 322 19.4 100820 78
2005-07-18 10:05 51°16.302 2°54.418 4.2 317 19.4 100820 78
2005-07-18 10:06 51°16.319 2°54.436 4.1 316 19.4 100820 77
2005-07-18 10:07 51°16.335 2°54.456 3.4 309 19.4 100820 75
2005-07-18 10:08 51°16.351 2°54.479 4.2 309 19.5 100820 77
2005-07-18 10:09 51°16.361 2°54.483 4.2 352 19.5 100820 75
2005-07-18 10:10 51°16.345 2°54.489 4.8 48 19.5 100820 74
2005-07-18 10:11 51°16.322 2°54.579 3.5 103 19.4 100810 75
2005-07-18 10:12 51°16.373 2°54.695 1.4 285 19.3 100820 75
2005-07-18 10:13 51°16.456 2°54.774 1.6 241 19.4 100820 75
2005-07-18 10:14 51°16.529 2°54.822 1.9 241 19.5 100820 74
2005-07-18 10:15 51°16.597 2°54.867 2.2 247 19.6 100820 74
2005-07-18 10:16 51°16.659 2°54.91 1.8 237 19.6 100820 74
2005-07-18 10:17 51°16.721 2°54.956 2.4 227 19.7 100820 75
2005-07-18 10:18 51°16.779 2°54.999 2 235 19.7 100820 75
2005-07-18 10:19 51°16.839 2°55.041 2.3 240 19.7 100820 75
2005-07-18 10:20 51°16.897 2°55.077 2.4 240 19.8 100820 74
2005-07-18 10:21 51°16.955 2°55.126 2 218 19.7 100820 73
2005-07-18 10:22 51°17.01 2°55.174 2.4 232 19.7 100820 73
2005-07-18 10:23 51°17.067 2°55.212 1.8 242 19.7 100820 72
2005-07-18 10:24 51°17.124 2°55.252 2 238 19.8 100820 74
2005-07-18 10:25 51°17.197 2°55.271 4.2 42 19.8 100820 74
2005-07-18 10:26 51°17.206 2°55.163 6.4 10 19.8 100810 74
2005-07-18 10:27 51°17.082 2°55.092 9 13 19.7 100810 73
2005-07-18 10:28 51°16.903 2°55.01 10.2 11 19.6 100800 72
2005-07-18 10:29 51°16.71 2°54.924 8.7 15 19.6 100800 73
2005-07-18 10:30 51°16.566 2°54.847 8.2 4 19.5 100810 74
2005-07-18 10:31 51°16.474 2°54.692 7.6 357 19.5 100810 73
2005-07-18 10:32 51°16.395 2°54.572 7.1 2 19.5 100810 74
2005-07-18 10:33 51°16.338 2°54.456 6.2 351 19.5 100810 73
2005-07-18 10:34 51°16.297 2°54.375 5.6 3 19.5 100820 73
2005-07-18 10:35 51°16.255 2°54.311 5.7 -999 19.5 100820 74
2005-07-18 10:36 51°16.245 2°54.296 4.4 353 19.5 100820 74
2005-07-18 10:37 51°16.248 2°54.296 4.5 335 19.6 100820 74
2005-07-18 10:38 51°16.254 2°54.286 5.9 328 19.6 100830 74
2005-07-18 10:39 51°16.29 2°54.125 7.1 326 19.6 100810 74
2005-07-18 10:40 51°16.393 2°53.93 7.8 327 19.6 100810 74
2005-07-18 10:41 51°16.52 2°53.682 8.1 335 19.5 100810 74
2005-07-18 10:42 51°16.659 2°53.411 9 333 19.5 100810 76
2005-07-18 10:43 51°16.802 2°53.149 9.7 330 19.5 100810 76
2005-07-18 10:44 51°16.956 2°52.909 8.6 328 19.5 100810 76
2005-07-18 10:45 51°17.131 2°52.672 10 321 19.5 100810 77
2005-07-18 10:46 51°17.309 2°52.45 9.9 324 19.5 100810 76
2005-07-18 10:47 51°17.489 2°52.227 10 324 19.5 100800 75
2005-07-18 10:48 51°17.667 2°52.011 9.1 325 19.5 100810 77
2005-07-18 10:49 51°17.847 2°51.782 9.5 324 19.4 100800 77
2005-07-18 10:50 51°18.02 2°51.555 9.5 319 19.4 100790 77
2005-07-18 10:51 51°18.198 2°51.323 9.3 326 19.3 100800 77
2005-07-18 10:52 51°18.35 2°51.129 8 309 19.3 100800 77
2005-07-18 10:53 51°18.451 2°51.019 6.1 289 19.3 100800 77
2005-07-18 10:54 51°18.527 2°50.974 4.1 247 19.3 100810 77
2005-07-18 10:55 51°18.537 2°50.991 5.5 242 19.4 100810 78
2005-07-18 10:56 51°18.546 2°51.012 5.8 241 19.3 100810 78
2005-07-18 10:57 51°18.558 2°51.035 5.6 246 19.3 100820 78
2005-07-18 10:58 51°18.574 2°51.057 5.8 243 19.3 100820 79
2005-07-18 10:59 51°18.591 2°51.08 5.2 251 19.2 100810 79
2005-07-18 11:00 51°18.61 2°51.103 4.4 262 19.2 100810 79
2005-07-18 11:01 51°18.629 2°51.123 6.2 266 19.2 100810 79
2005-07-18 11:02 51°18.653 2°51.14 4.2 258 19.2 100820 79
2005-07-18 11:03 51°18.684 2°51.156 4.4 249 19.2 100820 79
2005-07-18 11:04 51°18.723 2°51.18 5.8 220 19.1 100820 79
2005-07-18 11:05 51°18.769 2°51.223 4.3 229 19.1 100830 78
2005-07-18 11:06 51°18.816 2°51.264 5.4 235 19.1 100820 80
2005-07-18 11:07 51°18.864 2°51.303 5.6 228 19.1 100820 79
2005-07-18 11:08 51°18.912 2°51.338 5.4 242 19.1 100820 79
2005-07-18 11:09 51°18.961 2°51.363 4.1 255 19.1 100820 79
2005-07-18 11:10 51°19.009 2°51.385 5 240 19.1 100820 78
2005-07-18 11:11 51°19.053 2°51.422 4.8 217 19.1 100820 77
2005-07-18 11:12 51°19.094 2°51.467 5.7 219 19.1 100820 75
2005-07-18 11:13 51°19.135 2°51.51 4.8 219 19.1 100820 75
2005-07-18 11:14 51°19.176 2°51.575 3.9 157 19.1 100820 75
2005-07-18 11:15 51°19.17 2°51.685 4.9 70 19.2 100810 76
2005-07-18 11:16 51°19.118 2°51.699 7.5 22 19.2 100800 78
2005-07-18 11:17 51°19.009 2°51.587 11.3 19 19.2 100790 79
2005-07-18 11:18 51°18.867 2°51.455 11.3 15 19.2 100790 76
2005-07-18 11:19 51°18.727 2°51.306 10.7 16 19.2 100790 76
2005-07-18 11:20 51°18.597 2°51.134 11.1 14 19.2 100790 74
2005-07-18 11:21 51°18.501 2°50.98 7.9 2 19.2 100800 71
2005-07-18 11:22 51°18.486 2°50.936 5.7 356 19.2 100810 70
2005-07-18 11:23 51°18.488 2°50.925 5.8 2 19.3 100810 69
2005-07-18 11:24 51°18.491 2°50.919 5.5 1 19.3 100810 70
2005-07-18 11:25 51°18.497 2°50.917 5.6 8 19.4 100810 71
2005-07-18 11:26 51°18.503 2°50.919 4.8 16 19.4 100810 73
2005-07-18 11:27 51°18.506 2°50.919 5.7 16 19.4 100810 75
2005-07-18 11:28 51°18.431 2°50.865 9.4 27 19.4 100800 76
2005-07-18 11:29 51°18.244 2°50.897 9.9 37 19.3 100790 77
2005-07-18 11:30 51°18.065 2°51.076 8.7 52 19.1 100800 76
2005-07-18 11:31 51°17.92 2°51.336 8 54 19 100790 75
2005-07-18 11:32 51°17.771 2°51.597 8.4 51 19 100800 72
2005-07-18 11:33 51°17.621 2°51.841 8.1 52 19.1 100800 73
2005-07-18 11:34 51°17.459 2°52.086 9.2 54 19 100800 69
2005-07-18 11:35 51°17.295 2°52.3 8.4 54 19.1 100800 69
2005-07-18 11:36 51°17.112 2°52.482 9.6 50 19.2 100800 71
2005-07-18 11:37 51°16.921 2°52.666 8.8 44 19.2 100810 71
2005-07-18 11:38 51°16.735 2°52.846 8.4 50 19.2 100810 73
2005-07-18 11:39 51°16.548 2°53.029 8.4 43 19.2 100810 76
2005-07-18 11:40 51°16.367 2°53.207 8.1 47 19.2 100810 76
2005-07-18 11:41 51°16.169 2°53.372 7.7 46 19.2 100800 75
2005-07-18 11:42 51°15.975 2°53.53 7.7 46 19.3 100800 71
2005-07-18 11:43 51°15.789 2°53.688 7.5 50 19.4 100800 70
2005-07-18 11:44 51°15.593 2°53.849 7.3 47 19.4 100800 69
2005-07-18 11:45 51°15.402 2°53.999 7.7 52 19.5 100800 68
2005-07-18 11:46 51°15.207 2°54.15 7.6 49 19.5 100800 69
2005-07-18 11:47 51°15.013 2°54.305 7.5 56 19.6 100800 67
2005-07-18 11:48 51°14.817 2°54.462 7.3 59 19.7 100800 66
2005-07-18 11:49 51°14.626 2°54.633 5.9 48 19.8 100800 67
2005-07-18 11:50 51°14.457 2°54.857 4.9 65 19.9 100810 68
2005-07-18 11:51 51°14.336 2°55.103 3.1 83 19.9 100810 67
2005-07-18 11:52 51°14.235 2°55.311 4.1 94 20 100810 67
2005-07-18 11:53 51°14.13 2°55.415 3.9 84 20.2 100810 66
2005-07-18 11:54 51°14.022 2°55.491 3.6 63 20.5 100810 62
2005-07-18 11:55 51°13.907 2°55.573 3.6 106 20.8 100810 63
2005-07-18 11:56 51°13.793 2°55.66 2.4 41 20.9 100810 56
2005-07-18 11:57 51°13.714 2°55.769 1.6 111 21.2 100810 54
2005-07-18 11:58 51°13.666 2°55.894 0.6 147 21.3 100810 53
2005-07-18 11:59 51°13.641 2°55.987 2.7 163 21.6 100810 54
2005-07-18 12:00 51°13.624 2°56.046 4.4 179 21.7 100810 54